MSC Rania — 3EEB3 — position and weather

sailwx.info

Track history (hours):
 
Tides and Currents Weather Stations Pressure Air Temp Water Temp Dewpoint Dewpoint Depression Visibility Wind Speed Wind Dir Waves Ship Positions

MSC Rania

Last reported at 2015-Jul-01 04:09 UTC. Time now 2015-Jul-01 06:39 UTC.
Position N 29°46' E 122°27'.

Length 332 m; draft 10.6 m.

Type: Ship (hazmat cat A). MMSI: 371752000.

Date/timePositionNaut miles runAvg speedWind from/ knotsBaromVisibWave heightAir tempDewpointWater temp
2015-Jul-01 04:09N 29°46' E 122°27'0 0.3
2015-Jul-01 03:33N 29°47' E 122°27'0 0.2
2015-Jul-01 02:33N 29°47' E 122°27'1 0.2
2015-Jun-30 23:31N 29°46' E 122°26'8 8.7
2015-Jun-30 22:33N 29°46' E 122°36'9 9.1
2015-Jun-30 21:33N 29°50' E 122°45'31 7.6
2015-Jun-30 17:25N 30°21' E 122°54'910.1
2015-Jun-30 16:33N 30°27' E 122°47'2311.2
2015-Jun-30 14:30N 30°32' E 122°21'1010.1
2015-Jun-30 13:29N 30°34' E 122°09'7 0.8
2015-Jun-30 05:05N 30°38' E 122°03'0 0.0
2015-Jun-30 04:29N 30°38' E 122°03'0 0.0
2015-Jun-30 03:29N 30°38' E 122°03'0 0.0
2015-Jun-29 22:11N 30°38' E 122°03'1 2.0
2015-Jun-29 21:34N 30°37' E 122°04'1211.4
2015-Jun-29 20:32N 30°33' E 122°17'1110.8
2015-Jun-29 19:33N 30°31' E 122°29'5 5.4
2015-Jun-29 18:33N 30°29' E 122°34'0 0.0
2015-Jun-28 16:32N 30°29' E 122°34'5 5.0
2015-Jun-28 15:33N 30°29' E 122°40'8 7.6
2015-Jun-28 14:33N 30°27' E 122°48'8 8.0
2015-Jun-28 13:33N 30°30' E 122°57'  
Track history (hours):
 
Tides and Currents Weather Stations Pressure Air Temp Water Temp Dewpoint Dewpoint Depression Visibility Wind Speed Wind Dir Waves Ship Positions

MSC Rania

Last reported at 2015-Jul-01 04:09 UTC. Time now 2015-Jul-01 06:39 UTC.
Position N 29°46' E 122°27'.

Length 332 m; draft 10.6 m.

Type: Ship (hazmat cat A). MMSI: 371752000.

Date/timePositionNaut miles runAvg speedWind from/ knotsBaromVisibWave heightAir tempDewpointWater temp
2015-Jul-01 04:09N 29°46' E 122°27'0 0.3
2015-Jul-01 03:33N 29°47' E 122°27'0 0.2
2015-Jul-01 02:33N 29°47' E 122°27'1 0.2
2015-Jun-30 23:31N 29°46' E 122°26'8 8.7
2015-Jun-30 22:33N 29°46' E 122°36'9 9.1
2015-Jun-30 21:33N 29°50' E 122°45'31 7.6
2015-Jun-30 17:25N 30°21' E 122°54'910.1
2015-Jun-30 16:33N 30°27' E 122°47'2311.2
2015-Jun-30 14:30N 30°32' E 122°21'1010.1
2015-Jun-30 13:29N 30°34' E 122°09'7 0.8
2015-Jun-30 05:05N 30°38' E 122°03'0 0.0
2015-Jun-30 04:29N 30°38' E 122°03'0 0.0
2015-Jun-30 03:29N 30°38' E 122°03'0 0.0
2015-Jun-29 22:11N 30°38' E 122°03'1 2.0
2015-Jun-29 21:34N 30°37' E 122°04'1211.4
2015-Jun-29 20:32N 30°33' E 122°17'1110.8
2015-Jun-29 19:33N 30°31' E 122°29'5 5.4
2015-Jun-29 18:33N 30°29' E 122°34'0 0.0
2015-Jun-28 16:32N 30°29' E 122°34'5 5.0
2015-Jun-28 15:33N 30°29' E 122°40'8 7.6
2015-Jun-28 14:33N 30°27' E 122°48'8 8.0
2015-Jun-28 13:33N 30°30' E 122°57'  

Dump ship's entire track history